Terminal Aerodrome Forecast
Issued by NWS

Home | Current Version | Previous Version | Text Only | Print | Product List | Glossary On
Versions: 1 2 3 4 5 6 7 8 9 10 11 12 13 14 15 16
000
FTUS44 KCRP 041133
TAFALI
TAF
KALI 041133Z 0412/0512 14004KT 6SM BR FEW018
      TEMPO 0412/0414 3SM BR BKN015
     FM041400 14006KT P6SM SCT025
     FM041700 14012G18KT P6SM VCSH SCT040
     FM050100 15008KT P6SM SCT025=

USA.gov is the U.S. government's official web portal to all federal, state and local government web resources and services.